sensor_id;sensor_type;location;lat;lon;timestamp;P1;durP1;ratioP1;P2;durP2;ratioP2
76167;SDS011;64927;48.214;16.378;2023-06-10T00:01:39;5.55;;;3.88;;
76167;SDS011;64927;48.214;16.378;2023-06-10T00:04:12;5.25;;;3.83;;
76167;SDS011;64927;48.214;16.378;2023-06-10T00:06:38;6.63;;;4.10;;
76167;SDS011;64927;48.214;16.378;2023-06-10T00:09:04;6.40;;;4.10;;
76167;SDS011;64927;48.214;16.378;2023-06-10T00:11:33;5.70;;;4.10;;
76167;SDS011;64927;48.214;16.378;2023-06-10T00:13:59;6.53;;;3.80;;
76167;SDS011;64927;48.214;16.378;2023-06-10T00:16:25;6.25;;;4.25;;
76167;SDS011;64927;48.214;16.378;2023-06-10T00:18:53;6.57;;;3.63;;
76167;SDS011;64927;48.214;16.378;2023-06-10T00:21:32;7.50;;;3.78;;
76167;SDS011;64927;48.214;16.378;2023-06-10T00:24:08;6.10;;;3.70;;
76167;SDS011;64927;48.214;16.378;2023-06-10T00:26:38;6.80;;;3.83;;
76167;SDS011;64927;48.214;16.378;2023-06-10T00:29:05;5.78;;;4.22;;
76167;SDS011;64927;48.214;16.378;2023-06-10T00:31:31;5.95;;;3.88;;
76167;SDS011;64927;48.214;16.378;2023-06-10T00:33:56;7.93;;;4.40;;
76167;SDS011;64927;48.214;16.378;2023-06-10T00:36:24;5.65;;;3.67;;
76167;SDS011;64927;48.214;16.378;2023-06-10T00:38:53;5.93;;;4.07;;
76167;SDS011;64927;48.214;16.378;2023-06-10T00:41:18;7.30;;;4.30;;
76167;SDS011;64927;48.214;16.378;2023-06-10T00:43:44;6.45;;;3.88;;
76167;SDS011;64927;48.214;16.378;2023-06-10T00:46:11;6.13;;;4.43;;
76167;SDS011;64927;48.214;16.378;2023-06-10T00:48:37;6.78;;;4.78;;
76167;SDS011;64927;48.214;16.378;2023-06-10T00:51:04;5.05;;;3.88;;
76167;SDS011;64927;48.214;16.378;2023-06-10T00:53:31;7.80;;;4.30;;
76167;SDS011;64927;48.214;16.378;2023-06-10T00:56:02;5.07;;;3.70;;
76167;SDS011;64927;48.214;16.378;2023-06-10T00:58:28;10.48;;;4.45;;
76167;SDS011;64927;48.214;16.378;2023-06-10T01:00:54;5.13;;;3.78;;
76167;SDS011;64927;48.214;16.378;2023-06-10T01:03:20;5.97;;;4.32;;
76167;SDS011;64927;48.214;16.378;2023-06-10T01:05:50;7.28;;;3.80;;
76167;SDS011;64927;48.214;16.378;2023-06-10T01:11:03;6.25;;;4.95;;
76167;SDS011;64927;48.214;16.378;2023-06-10T01:13:32;4.85;;;3.85;;
76167;SDS011;64927;48.214;16.378;2023-06-10T01:16:03;6.20;;;4.80;;
76167;SDS011;64927;48.214;16.378;2023-06-10T01:18:30;7.07;;;4.55;;
76167;SDS011;64927;48.214;16.378;2023-06-10T01:20:56;5.90;;;4.53;;
76167;SDS011;64927;48.214;16.378;2023-06-10T01:23:22;6.45;;;4.43;;
76167;SDS011;64927;48.214;16.378;2023-06-10T01:26:22;6.75;;;5.07;;
76167;SDS011;64927;48.214;16.378;2023-06-10T01:28:45;9.32;;;5.05;;
76167;SDS011;64927;48.214;16.378;2023-06-10T01:33:50;8.38;;;5.40;;
76167;SDS011;64927;48.214;16.378;2023-06-10T01:36:18;9.25;;;5.40;;
76167;SDS011;64927;48.214;16.378;2023-06-10T01:38:47;7.30;;;5.00;;
76167;SDS011;64927;48.214;16.378;2023-06-10T01:41:16;8.77;;;6.07;;
76167;SDS011;64927;48.214;16.378;2023-06-10T01:43:43;8.35;;;5.18;;
76167;SDS011;64927;48.214;16.378;2023-06-10T01:46:09;7.00;;;5.35;;
76167;SDS011;64927;48.214;16.378;2023-06-10T01:48:36;10.38;;;5.22;;
76167;SDS011;64927;48.214;16.378;2023-06-10T01:51:03;6.78;;;5.20;;
76167;SDS011;64927;48.214;16.378;2023-06-10T01:53:29;7.18;;;5.15;;
76167;SDS011;64927;48.214;16.378;2023-06-10T01:55:57;8.77;;;5.65;;
76167;SDS011;64927;48.214;16.378;2023-06-10T01:58:23;7.88;;;6.53;;
76167;SDS011;64927;48.214;16.378;2023-06-10T02:00:48;9.82;;;5.88;;
76167;SDS011;64927;48.214;16.378;2023-06-10T02:03:14;9.00;;;6.07;;
76167;SDS011;64927;48.214;16.378;2023-06-10T02:05:40;10.00;;;5.65;;
76167;SDS011;64927;48.214;16.378;2023-06-10T02:08:05;8.48;;;5.97;;
76167;SDS011;64927;48.214;16.378;2023-06-10T02:10:31;10.45;;;7.15;;
76167;SDS011;64927;48.214;16.378;2023-06-10T02:12:57;9.50;;;6.85;;
76167;SDS011;64927;48.214;16.378;2023-06-10T02:15:22;8.75;;;7.05;;
76167;SDS011;64927;48.214;16.378;2023-06-10T02:17:48;10.05;;;6.55;;
76167;SDS011;64927;48.214;16.378;2023-06-10T02:20:14;9.93;;;7.20;;
76167;SDS011;64927;48.214;16.378;2023-06-10T02:22:40;10.70;;;6.95;;
76167;SDS011;64927;48.214;16.378;2023-06-10T02:25:08;10.63;;;7.85;;
76167;SDS011;64927;48.214;16.378;2023-06-10T02:27:34;13.63;;;7.35;;
76167;SDS011;64927;48.214;16.378;2023-06-10T02:29:59;10.90;;;8.38;;
76167;SDS011;64927;48.214;16.378;2023-06-10T02:32:27;11.52;;;8.10;;
76167;SDS011;64927;48.214;16.378;2023-06-10T02:34:53;12.60;;;8.80;;
76167;SDS011;64927;48.214;16.378;2023-06-10T02:37:19;13.52;;;9.15;;
76167;SDS011;64927;48.214;16.378;2023-06-10T02:39:45;10.98;;;8.73;;
76167;SDS011;64927;48.214;16.378;2023-06-10T02:42:11;10.38;;;7.70;;
76167;SDS011;64927;48.214;16.378;2023-06-10T02:44:37;10.60;;;8.52;;
76167;SDS011;64927;48.214;16.378;2023-06-10T02:47:03;12.23;;;8.38;;
76167;SDS011;64927;48.214;16.378;2023-06-10T02:49:29;12.20;;;7.82;;
76167;SDS011;64927;48.214;16.378;2023-06-10T02:51:57;11.07;;;8.23;;
76167;SDS011;64927;48.214;16.378;2023-06-10T02:54:25;12.95;;;8.30;;
76167;SDS011;64927;48.214;16.378;2023-06-10T02:56:51;9.82;;;7.78;;
76167;SDS011;64927;48.214;16.378;2023-06-10T02:59:17;10.02;;;8.05;;
76167;SDS011;64927;48.214;16.378;2023-06-10T03:01:44;12.00;;;8.05;;
76167;SDS011;64927;48.214;16.378;2023-06-10T03:04:10;15.70;;;8.55;;
76167;SDS011;64927;48.214;16.378;2023-06-10T03:06:39;12.48;;;8.38;;
76167;SDS011;64927;48.214;16.378;2023-06-10T03:09:10;12.73;;;9.02;;
76167;SDS011;64927;48.214;16.378;2023-06-10T03:11:36;16.77;;;8.95;;
76167;SDS011;64927;48.214;16.378;2023-06-10T03:14:02;13.48;;;7.93;;
76167;SDS011;64927;48.214;16.378;2023-06-10T03:16:27;13.93;;;9.02;;
76167;SDS011;64927;48.214;16.378;2023-06-10T03:18:55;10.60;;;7.85;;
76167;SDS011;64927;48.214;16.378;2023-06-10T03:21:23;10.60;;;8.48;;
76167;SDS011;64927;48.214;16.378;2023-06-10T03:23:48;12.32;;;8.02;;
76167;SDS011;64927;48.214;16.378;2023-06-10T03:26:14;11.82;;;8.30;;
76167;SDS011;64927;48.214;16.378;2023-06-10T03:28:40;11.95;;;8.63;;
76167;SDS011;64927;48.214;16.378;2023-06-10T03:31:06;10.02;;;7.38;;
76167;SDS011;64927;48.214;16.378;2023-06-10T03:33:32;12.43;;;8.00;;
76167;SDS011;64927;48.214;16.378;2023-06-10T03:35:58;9.35;;;7.10;;
76167;SDS011;64927;48.214;16.378;2023-06-10T03:38:24;9.80;;;7.55;;
76167;SDS011;64927;48.214;16.378;2023-06-10T03:40:49;10.13;;;7.75;;
76167;SDS011;64927;48.214;16.378;2023-06-10T03:43:15;8.32;;;6.65;;
76167;SDS011;64927;48.214;16.378;2023-06-10T03:45:41;16.00;;;7.93;;
76167;SDS011;64927;48.214;16.378;2023-06-10T03:48:11;11.13;;;8.23;;
76167;SDS011;64927;48.214;16.378;2023-06-10T03:50:39;9.30;;;7.43;;
76167;SDS011;64927;48.214;16.378;2023-06-10T03:53:05;10.88;;;8.05;;
76167;SDS011;64927;48.214;16.378;2023-06-10T03:55:30;13.77;;;8.70;;
76167;SDS011;64927;48.214;16.378;2023-06-10T03:57:56;12.00;;;9.10;;
76167;SDS011;64927;48.214;16.378;2023-06-10T04:00:23;13.75;;;8.57;;
76167;SDS011;64927;48.214;16.378;2023-06-10T04:02:48;14.63;;;9.82;;
76167;SDS011;64927;48.214;16.378;2023-06-10T04:05:16;13.85;;;9.27;;
76167;SDS011;64927;48.214;16.378;2023-06-10T04:07:42;12.43;;;9.55;;
76167;SDS011;64927;48.214;16.378;2023-06-10T04:10:09;14.55;;;10.35;;
76167;SDS011;64927;48.214;16.378;2023-06-10T04:12:38;13.35;;;9.30;;
76167;SDS011;64927;48.214;16.378;2023-06-10T04:15:04;13.60;;;9.10;;
76167;SDS011;64927;48.214;16.378;2023-06-10T04:17:30;11.50;;;9.90;;
76167;SDS011;64927;48.214;16.378;2023-06-10T04:19:56;16.65;;;10.07;;
76167;SDS011;64927;48.214;16.378;2023-06-10T04:22:22;14.35;;;9.75;;
76167;SDS011;64927;48.214;16.378;2023-06-10T04:24:51;12.27;;;9.70;;
76167;SDS011;64927;48.214;16.378;2023-06-10T04:27:19;14.82;;;10.07;;
76167;SDS011;64927;48.214;16.378;2023-06-10T04:29:45;13.05;;;9.70;;
76167;SDS011;64927;48.214;16.378;2023-06-10T04:32:10;14.52;;;10.18;;
76167;SDS011;64927;48.214;16.378;2023-06-10T04:34:36;14.30;;;10.52;;
76167;SDS011;64927;48.214;16.378;2023-06-10T04:37:04;13.68;;;10.02;;
76167;SDS011;64927;48.214;16.378;2023-06-10T04:39:30;13.45;;;10.00;;
76167;SDS011;64927;48.214;16.378;2023-06-10T04:41:55;17.20;;;10.98;;
76167;SDS011;64927;48.214;16.378;2023-06-10T04:44:21;14.57;;;10.20;;
76167;SDS011;64927;48.214;16.378;2023-06-10T04:46:47;14.35;;;10.57;;
76167;SDS011;64927;48.214;16.378;2023-06-10T04:49:13;14.25;;;10.43;;
76167;SDS011;64927;48.214;16.378;2023-06-10T04:51:39;14.25;;;11.02;;
76167;SDS011;64927;48.214;16.378;2023-06-10T04:54:05;14.10;;;10.57;;
76167;SDS011;64927;48.214;16.378;2023-06-10T04:56:33;13.38;;;10.68;;
76167;SDS011;64927;48.214;16.378;2023-06-10T04:58:59;15.45;;;10.25;;
76167;SDS011;64927;48.214;16.378;2023-06-10T05:01:27;15.07;;;10.52;;
76167;SDS011;64927;48.214;16.378;2023-06-10T05:03:55;13.60;;;10.55;;
76167;SDS011;64927;48.214;16.378;2023-06-10T05:06:21;13.65;;;9.95;;
76167;SDS011;64927;48.214;16.378;2023-06-10T05:08:46;13.55;;;9.93;;
76167;SDS011;64927;48.214;16.378;2023-06-10T05:11:12;17.88;;;10.77;;
76167;SDS011;64927;48.214;16.378;2023-06-10T05:13:41;17.77;;;10.13;;
76167;SDS011;64927;48.214;16.378;2023-06-10T05:16:07;20.13;;;11.68;;
76167;SDS011;64927;48.214;16.378;2023-06-10T05:18:34;18.52;;;12.57;;
76167;SDS011;64927;48.214;16.378;2023-06-10T05:21:00;16.65;;;10.65;;
76167;SDS011;64927;48.214;16.378;2023-06-10T05:23:26;13.95;;;9.95;;
76167;SDS011;64927;48.214;16.378;2023-06-10T05:25:52;17.17;;;11.45;;
76167;SDS011;64927;48.214;16.378;2023-06-10T05:28:17;15.05;;;10.25;;
76167;SDS011;64927;48.214;16.378;2023-06-10T05:30:43;17.50;;;10.98;;
76167;SDS011;64927;48.214;16.378;2023-06-10T05:33:09;15.13;;;10.57;;
76167;SDS011;64927;48.214;16.378;2023-06-10T05:35:34;19.30;;;11.52;;
76167;SDS011;64927;48.214;16.378;2023-06-10T05:38:00;16.23;;;11.98;;
76167;SDS011;64927;48.214;16.378;2023-06-10T05:40:27;20.33;;;12.85;;
76167;SDS011;64927;48.214;16.378;2023-06-10T05:42:53;17.50;;;12.10;;
76167;SDS011;64927;48.214;16.378;2023-06-10T05:45:19;18.15;;;12.75;;
76167;SDS011;64927;48.214;16.378;2023-06-10T05:47:44;17.48;;;12.68;;
76167;SDS011;64927;48.214;16.378;2023-06-10T05:50:10;21.73;;;13.30;;
76167;SDS011;64927;48.214;16.378;2023-06-10T05:52:36;18.45;;;12.65;;
76167;SDS011;64927;48.214;16.378;2023-06-10T05:55:02;24.25;;;12.07;;
76167;SDS011;64927;48.214;16.378;2023-06-10T05:57:28;19.08;;;13.20;;
76167;SDS011;64927;48.214;16.378;2023-06-10T05:59:54;20.38;;;12.65;;
76167;SDS011;64927;48.214;16.378;2023-06-10T06:02:22;20.55;;;13.75;;
76167;SDS011;64927;48.214;16.378;2023-06-10T06:04:47;22.45;;;14.18;;
76167;SDS011;64927;48.214;16.378;2023-06-10T06:07:13;19.83;;;13.70;;
76167;SDS011;64927;48.214;16.378;2023-06-10T06:09:39;24.33;;;13.82;;
76167;SDS011;64927;48.214;16.378;2023-06-10T06:12:07;24.42;;;15.05;;
76167;SDS011;64927;48.214;16.378;2023-06-10T06:14:36;21.75;;;14.27;;
76167;SDS011;64927;48.214;16.378;2023-06-10T06:17:04;21.67;;;14.02;;
76167;SDS011;64927;48.214;16.378;2023-06-10T06:19:30;19.55;;;13.82;;
76167;SDS011;64927;48.214;16.378;2023-06-10T06:21:56;23.75;;;14.65;;
76167;SDS011;64927;48.214;16.378;2023-06-10T06:24:21;23.70;;;14.20;;
76167;SDS011;64927;48.214;16.378;2023-06-10T06:26:47;24.65;;;14.68;;
76167;SDS011;64927;48.214;16.378;2023-06-10T06:29:15;25.15;;;15.38;;
76167;SDS011;64927;48.214;16.378;2023-06-10T06:31:41;26.67;;;16.15;;
76167;SDS011;64927;48.214;16.378;2023-06-10T06:34:09;24.67;;;14.77;;
76167;SDS011;64927;48.214;16.378;2023-06-10T06:36:37;26.40;;;15.68;;
76167;SDS011;64927;48.214;16.378;2023-06-10T06:39:05;26.95;;;15.77;;
76167;SDS011;64927;48.214;16.378;2023-06-10T06:41:33;22.33;;;14.93;;
76167;SDS011;64927;48.214;16.378;2023-06-10T06:44:01;24.40;;;14.70;;
76167;SDS011;64927;48.214;16.378;2023-06-10T06:46:27;19.17;;;13.55;;
76167;SDS011;64927;48.214;16.378;2023-06-10T06:48:55;19.15;;;13.10;;
76167;SDS011;64927;48.214;16.378;2023-06-10T06:51:21;20.08;;;14.52;;
76167;SDS011;64927;48.214;16.378;2023-06-10T06:53:47;23.33;;;13.90;;
76167;SDS011;64927;48.214;16.378;2023-06-10T06:56:15;19.88;;;13.20;;
76167;SDS011;64927;48.214;16.378;2023-06-10T06:58:40;19.27;;;13.32;;
76167;SDS011;64927;48.214;16.378;2023-06-10T07:01:06;19.38;;;13.90;;
76167;SDS011;64927;48.214;16.378;2023-06-10T07:03:34;21.70;;;15.25;;
76167;SDS011;64927;48.214;16.378;2023-06-10T07:06:00;20.48;;;13.52;;
76167;SDS011;64927;48.214;16.378;2023-06-10T07:08:27;20.70;;;14.38;;
76167;SDS011;64927;48.214;16.378;2023-06-10T07:10:53;21.42;;;13.98;;
76167;SDS011;64927;48.214;16.378;2023-06-10T07:13:19;22.40;;;15.32;;
76167;SDS011;64927;48.214;16.378;2023-06-10T07:15:45;23.90;;;14.63;;
76167;SDS011;64927;48.214;16.378;2023-06-10T07:18:11;23.45;;;14.45;;
76167;SDS011;64927;48.214;16.378;2023-06-10T07:20:36;19.42;;;14.80;;
76167;SDS011;64927;48.214;16.378;2023-06-10T07:23:02;20.23;;;14.00;;
76167;SDS011;64927;48.214;16.378;2023-06-10T07:25:28;22.10;;;14.48;;
76167;SDS011;64927;48.214;16.378;2023-06-10T07:27:53;24.15;;;13.60;;
76167;SDS011;64927;48.214;16.378;2023-06-10T07:30:24;21.02;;;13.00;;
76167;SDS011;64927;48.214;16.378;2023-06-10T07:32:50;21.75;;;14.02;;
76167;SDS011;64927;48.214;16.378;2023-06-10T07:35:16;21.05;;;14.43;;
76167;SDS011;64927;48.214;16.378;2023-06-10T07:37:42;20.98;;;13.95;;
76167;SDS011;64927;48.214;16.378;2023-06-10T07:40:08;19.48;;;13.15;;
76167;SDS011;64927;48.214;16.378;2023-06-10T07:42:34;25.05;;;13.85;;
76167;SDS011;64927;48.214;16.378;2023-06-10T07:45:03;20.77;;;14.40;;
76167;SDS011;64927;48.214;16.378;2023-06-10T07:47:30;19.77;;;15.05;;
76167;SDS011;64927;48.214;16.378;2023-06-10T07:49:56;21.50;;;14.77;;
76167;SDS011;64927;48.214;16.378;2023-06-10T07:52:21;19.00;;;13.57;;
76167;SDS011;64927;48.214;16.378;2023-06-10T07:54:47;17.23;;;12.50;;
76167;SDS011;64927;48.214;16.378;2023-06-10T07:57:13;18.45;;;12.98;;
76167;SDS011;64927;48.214;16.378;2023-06-10T07:59:38;20.48;;;13.38;;
76167;SDS011;64927;48.214;16.378;2023-06-10T08:02:04;20.70;;;14.55;;
76167;SDS011;64927;48.214;16.378;2023-06-10T08:04:32;21.08;;;13.27;;
76167;SDS011;64927;48.214;16.378;2023-06-10T08:07:00;20.40;;;14.13;;
76167;SDS011;64927;48.214;16.378;2023-06-10T08:09:28;20.02;;;13.15;;
76167;SDS011;64927;48.214;16.378;2023-06-10T08:11:56;17.75;;;12.40;;
76167;SDS011;64927;48.214;16.378;2023-06-10T08:14:24;21.02;;;13.23;;
76167;SDS011;64927;48.214;16.378;2023-06-10T08:16:50;16.60;;;12.48;;
76167;SDS011;64927;48.214;16.378;2023-06-10T08:19:15;17.10;;;12.75;;
76167;SDS011;64927;48.214;16.378;2023-06-10T08:21:41;22.65;;;13.27;;
76167;SDS011;64927;48.214;16.378;2023-06-10T08:24:09;35.58;;;15.43;;
76167;SDS011;64927;48.214;16.378;2023-06-10T08:26:35;20.95;;;13.27;;
76167;SDS011;64927;48.214;16.378;2023-06-10T08:29:00;16.75;;;13.27;;
76167;SDS011;64927;48.214;16.378;2023-06-10T08:31:26;17.77;;;12.63;;
76167;SDS011;64927;48.214;16.378;2023-06-10T08:33:52;18.98;;;12.77;;
76167;SDS011;64927;48.214;16.378;2023-06-10T08:36:17;14.88;;;11.63;;
76167;SDS011;64927;48.214;16.378;2023-06-10T08:38:43;17.08;;;13.10;;
76167;SDS011;64927;48.214;16.378;2023-06-10T08:41:08;19.67;;;13.13;;
76167;SDS011;64927;48.214;16.378;2023-06-10T08:43:42;17.73;;;12.82;;
76167;SDS011;64927;48.214;16.378;2023-06-10T08:46:13;16.17;;;12.55;;
76167;SDS011;64927;48.214;16.378;2023-06-10T08:48:41;16.80;;;12.77;;
76167;SDS011;64927;48.214;16.378;2023-06-10T08:51:11;20.80;;;12.55;;
76167;SDS011;64927;48.214;16.378;2023-06-10T08:53:37;17.55;;;12.88;;
76167;SDS011;64927;48.214;16.378;2023-06-10T08:56:09;20.25;;;13.10;;
76167;SDS011;64927;48.214;16.378;2023-06-10T08:58:36;15.73;;;11.15;;
76167;SDS011;64927;48.214;16.378;2023-06-10T09:01:07;17.42;;;12.50;;
76167;SDS011;64927;48.214;16.378;2023-06-10T09:03:34;18.23;;;12.48;;
76167;SDS011;64927;48.214;16.378;2023-06-10T09:06:03;18.23;;;12.55;;
76167;SDS011;64927;48.214;16.378;2023-06-10T09:08:31;19.00;;;13.30;;
76167;SDS011;64927;48.214;16.378;2023-06-10T09:10:58;17.77;;;12.43;;
76167;SDS011;64927;48.214;16.378;2023-06-10T09:13:23;13.80;;;11.00;;
76167;SDS011;64927;48.214;16.378;2023-06-10T09:15:52;17.88;;;11.55;;
76167;SDS011;64927;48.214;16.378;2023-06-10T09:18:17;18.38;;;11.63;;
76167;SDS011;64927;48.214;16.378;2023-06-10T09:20:45;17.85;;;12.07;;
76167;SDS011;64927;48.214;16.378;2023-06-10T09:23:11;14.73;;;11.88;;
76167;SDS011;64927;48.214;16.378;2023-06-10T09:25:38;19.70;;;12.23;;
76167;SDS011;64927;48.214;16.378;2023-06-10T09:28:04;12.93;;;9.63;;
76167;SDS011;64927;48.214;16.378;2023-06-10T09:30:37;15.45;;;11.13;;
76167;SDS011;64927;48.214;16.378;2023-06-10T09:33:03;17.23;;;10.70;;
76167;SDS011;64927;48.214;16.378;2023-06-10T09:35:45;15.00;;;11.05;;
76167;SDS011;64927;48.214;16.378;2023-06-10T09:38:11;16.13;;;10.43;;
76167;SDS011;64927;48.214;16.378;2023-06-10T09:40:48;14.57;;;10.93;;
76167;SDS011;64927;48.214;16.378;2023-06-10T09:43:15;16.02;;;11.52;;
76167;SDS011;64927;48.214;16.378;2023-06-10T09:45:41;13.50;;;10.35;;
76167;SDS011;64927;48.214;16.378;2023-06-10T09:48:10;14.73;;;10.65;;
76167;SDS011;64927;48.214;16.378;2023-06-10T09:50:42;15.63;;;11.10;;
76167;SDS011;64927;48.214;16.378;2023-06-10T09:53:09;14.43;;;9.73;;
76167;SDS011;64927;48.214;16.378;2023-06-10T09:55:37;18.05;;;11.15;;
76167;SDS011;64927;48.214;16.378;2023-06-10T09:58:04;11.77;;;10.23;;
76167;SDS011;64927;48.214;16.378;2023-06-10T10:00:31;14.52;;;10.88;;
76167;SDS011;64927;48.214;16.378;2023-06-10T10:02:58;11.32;;;9.48;;
76167;SDS011;64927;48.214;16.378;2023-06-10T10:05:24;13.25;;;9.70;;
76167;SDS011;64927;48.214;16.378;2023-06-10T10:07:50;16.33;;;9.65;;
76167;SDS011;64927;48.214;16.378;2023-06-10T10:10:17;16.27;;;9.85;;
76167;SDS011;64927;48.214;16.378;2023-06-10T10:12:45;11.98;;;8.63;;
76167;SDS011;64927;48.214;16.378;2023-06-10T10:15:13;11.63;;;9.25;;
76167;SDS011;64927;48.214;16.378;2023-06-10T10:20:26;11.80;;;8.00;;
76167;SDS011;64927;48.214;16.378;2023-06-10T10:22:56;19.42;;;14.52;;
76167;SDS011;64927;48.214;16.378;2023-06-10T10:25:27;16.67;;;11.25;;
76167;SDS011;64927;48.214;16.378;2023-06-10T10:27:57;11.23;;;9.13;;
76167;SDS011;64927;48.214;16.378;2023-06-10T10:30:30;12.55;;;9.65;;
76167;SDS011;64927;48.214;16.378;2023-06-10T10:33:09;9.93;;;8.25;;
76167;SDS011;64927;48.214;16.378;2023-06-10T10:35:36;12.85;;;8.65;;
76167;SDS011;64927;48.214;16.378;2023-06-10T10:38:03;10.00;;;7.80;;
76167;SDS011;64927;48.214;16.378;2023-06-10T10:40:30;12.95;;;7.72;;
76167;SDS011;64927;48.214;16.378;2023-06-10T10:42:57;13.73;;;8.20;;
76167;SDS011;64927;48.214;16.378;2023-06-10T10:45:24;9.63;;;7.97;;
76167;SDS011;64927;48.214;16.378;2023-06-10T10:47:54;10.80;;;8.65;;
76167;SDS011;64927;48.214;16.378;2023-06-10T10:50:22;9.93;;;8.20;;
76167;SDS011;64927;48.214;16.378;2023-06-10T10:53:01;10.55;;;8.30;;
76167;SDS011;64927;48.214;16.378;2023-06-10T10:55:32;15.00;;;8.93;;
76167;SDS011;64927;48.214;16.378;2023-06-10T10:58:07;10.00;;;7.57;;
76167;SDS011;64927;48.214;16.378;2023-06-10T11:00:33;11.43;;;8.32;;
76167;SDS011;64927;48.214;16.378;2023-06-10T11:05:41;9.52;;;7.70;;
76167;SDS011;64927;48.214;16.378;2023-06-10T11:11:00;10.98;;;7.65;;
76167;SDS011;64927;48.214;16.378;2023-06-10T11:13:42;10.38;;;7.82;;
76167;SDS011;64927;48.214;16.378;2023-06-10T11:16:26;9.88;;;7.93;;
76167;SDS011;64927;48.214;16.378;2023-06-10T11:18:53;10.88;;;8.45;;
76167;SDS011;64927;48.214;16.378;2023-06-10T11:21:19;9.77;;;7.78;;
76167;SDS011;64927;48.214;16.378;2023-06-10T11:23:45;9.32;;;7.55;;
76167;SDS011;64927;48.214;16.378;2023-06-10T11:26:16;10.93;;;7.90;;
76167;SDS011;64927;48.214;16.378;2023-06-10T11:31:21;9.05;;;6.93;;
76167;SDS011;64927;48.214;16.378;2023-06-10T11:33:48;7.35;;;6.47;;
76167;SDS011;64927;48.214;16.378;2023-06-10T11:36:18;7.18;;;6.20;;
76167;SDS011;64927;48.214;16.378;2023-06-10T11:38:46;7.82;;;6.75;;
76167;SDS011;64927;48.214;16.378;2023-06-10T11:41:13;9.82;;;6.32;;
76167;SDS011;64927;48.214;16.378;2023-06-10T11:43:42;11.35;;;7.35;;
76167;SDS011;64927;48.214;16.378;2023-06-10T11:46:09;9.68;;;7.07;;
76167;SDS011;64927;48.214;16.378;2023-06-10T11:48:39;7.93;;;7.05;;
76167;SDS011;64927;48.214;16.378;2023-06-10T11:51:13;9.48;;;6.47;;
76167;SDS011;64927;48.214;16.378;2023-06-10T11:53:38;10.35;;;7.65;;
76167;SDS011;64927;48.214;16.378;2023-06-10T11:56:04;8.88;;;7.18;;
76167;SDS011;64927;48.214;16.378;2023-06-10T11:58:30;8.88;;;7.28;;
76167;SDS011;64927;48.214;16.378;2023-06-10T12:00:55;9.70;;;6.65;;
76167;SDS011;64927;48.214;16.378;2023-06-10T12:03:26;10.10;;;6.78;;
76167;SDS011;64927;48.214;16.378;2023-06-10T12:06:04;7.75;;;6.57;;
76167;SDS011;64927;48.214;16.378;2023-06-10T12:08:33;8.25;;;6.90;;
76167;SDS011;64927;48.214;16.378;2023-06-10T12:11:09;7.63;;;6.53;;
76167;SDS011;64927;48.214;16.378;2023-06-10T12:13:38;8.60;;;6.53;;
76167;SDS011;64927;48.214;16.378;2023-06-10T12:16:14;9.55;;;6.32;;
76167;SDS011;64927;48.214;16.378;2023-06-10T12:18:41;11.30;;;6.20;;
76167;SDS011;64927;48.214;16.378;2023-06-10T12:21:18;10.43;;;5.93;;
76167;SDS011;64927;48.214;16.378;2023-06-10T12:24:03;7.72;;;6.50;;
76167;SDS011;64927;48.214;16.378;2023-06-10T12:31:52;8.00;;;6.43;;
76167;SDS011;64927;48.214;16.378;2023-06-10T12:34:30;10.65;;;7.40;;
76167;SDS011;64927;48.214;16.378;2023-06-10T12:37:05;7.30;;;6.32;;
76167;SDS011;64927;48.214;16.378;2023-06-10T12:39:38;9.07;;;6.45;;
76167;SDS011;64927;48.214;16.378;2023-06-10T12:42:05;10.40;;;6.53;;
76167;SDS011;64927;48.214;16.378;2023-06-10T12:44:35;9.18;;;7.75;;
76167;SDS011;64927;48.214;16.378;2023-06-10T12:47:10;16.70;;;8.73;;
76167;SDS011;64927;48.214;16.378;2023-06-10T12:52:05;11.10;;;7.82;;
76167;SDS011;64927;48.214;16.378;2023-06-10T12:54:31;10.45;;;7.68;;
76167;SDS011;64927;48.214;16.378;2023-06-10T12:56:57;11.45;;;7.47;;
76167;SDS011;64927;48.214;16.378;2023-06-10T12:59:22;9.57;;;7.45;;
76167;SDS011;64927;48.214;16.378;2023-06-10T13:01:52;11.88;;;7.57;;
76167;SDS011;64927;48.214;16.378;2023-06-10T13:04:18;10.75;;;7.80;;
76167;SDS011;64927;48.214;16.378;2023-06-10T13:06:45;11.77;;;8.68;;
76167;SDS011;64927;48.214;16.378;2023-06-10T13:09:14;12.07;;;8.93;;
76167;SDS011;64927;48.214;16.378;2023-06-10T13:11:40;11.85;;;8.52;;
76167;SDS011;64927;48.214;16.378;2023-06-10T13:14:07;11.55;;;8.05;;
76167;SDS011;64927;48.214;16.378;2023-06-10T13:16:33;10.48;;;8.38;;
76167;SDS011;64927;48.214;16.378;2023-06-10T13:19:01;13.80;;;7.70;;
76167;SDS011;64927;48.214;16.378;2023-06-10T13:21:27;10.38;;;7.07;;
76167;SDS011;64927;48.214;16.378;2023-06-10T13:23:53;11.50;;;7.65;;
76167;SDS011;64927;48.214;16.378;2023-06-10T13:26:19;9.40;;;7.13;;
76167;SDS011;64927;48.214;16.378;2023-06-10T13:28:45;10.15;;;7.63;;
76167;SDS011;64927;48.214;16.378;2023-06-10T13:31:10;8.80;;;7.43;;
76167;SDS011;64927;48.214;16.378;2023-06-10T13:33:36;11.25;;;8.40;;
76167;SDS011;64927;48.214;16.378;2023-06-10T13:36:02;10.45;;;7.68;;
76167;SDS011;64927;48.214;16.378;2023-06-10T13:38:28;11.20;;;7.13;;
76167;SDS011;64927;48.214;16.378;2023-06-10T13:40:54;10.65;;;7.57;;
76167;SDS011;64927;48.214;16.378;2023-06-10T13:43:19;11.43;;;7.70;;
76167;SDS011;64927;48.214;16.378;2023-06-10T13:45:45;10.52;;;7.25;;
76167;SDS011;64927;48.214;16.378;2023-06-10T13:48:10;12.85;;;8.73;;
76167;SDS011;64927;48.214;16.378;2023-06-10T13:50:38;11.15;;;8.48;;
76167;SDS011;64927;48.214;16.378;2023-06-10T13:53:04;13.18;;;8.38;;
76167;SDS011;64927;48.214;16.378;2023-06-10T13:55:29;13.43;;;8.30;;
76167;SDS011;64927;48.214;16.378;2023-06-10T13:57:55;10.30;;;7.68;;
76167;SDS011;64927;48.214;16.378;2023-06-10T14:00:23;11.18;;;7.97;;
76167;SDS011;64927;48.214;16.378;2023-06-10T14:02:50;9.35;;;7.35;;
76167;SDS011;64927;48.214;16.378;2023-06-10T14:05:15;11.52;;;8.50;;
76167;SDS011;64927;48.214;16.378;2023-06-10T14:07:43;9.82;;;8.05;;
76167;SDS011;64927;48.214;16.378;2023-06-10T14:10:09;10.25;;;8.60;;
76167;SDS011;64927;48.214;16.378;2023-06-10T14:12:35;10.93;;;9.00;;
76167;SDS011;64927;48.214;16.378;2023-06-10T14:15:01;10.43;;;8.82;;
76167;SDS011;64927;48.214;16.378;2023-06-10T14:17:28;12.45;;;9.30;;
76167;SDS011;64927;48.214;16.378;2023-06-10T14:19:54;9.90;;;8.75;;
76167;SDS011;64927;48.214;16.378;2023-06-10T14:22:20;12.80;;;8.65;;
76167;SDS011;64927;48.214;16.378;2023-06-10T14:24:45;15.10;;;9.68;;
76167;SDS011;64927;48.214;16.378;2023-06-10T14:27:12;13.40;;;9.70;;
76167;SDS011;64927;48.214;16.378;2023-06-10T14:29:37;12.43;;;10.18;;
76167;SDS011;64927;48.214;16.378;2023-06-10T14:32:03;10.25;;;8.55;;
76167;SDS011;64927;48.214;16.378;2023-06-10T14:34:31;15.45;;;8.77;;
76167;SDS011;64927;48.214;16.378;2023-06-10T14:36:59;9.35;;;7.57;;
76167;SDS011;64927;48.214;16.378;2023-06-10T14:39:25;10.77;;;8.27;;
76167;SDS011;64927;48.214;16.378;2023-06-10T14:41:50;10.57;;;8.38;;
76167;SDS011;64927;48.214;16.378;2023-06-10T14:44:18;10.60;;;8.07;;
76167;SDS011;64927;48.214;16.378;2023-06-10T14:46:44;10.38;;;8.18;;